sensor_id;sensor_type;location;lat;lon;timestamp;P1;durP1;ratioP1;P2;durP2;ratioP2
23117;SDS011;11728;50.624;6.014;2023-02-26T00:01:48;11.50;;;4.32;;
23117;SDS011;11728;50.624;6.014;2023-02-26T00:06:48;10.95;;;3.80;;
23117;SDS011;11728;50.624;6.014;2023-02-26T00:11:52;16.05;;;4.00;;
23117;SDS011;11728;50.624;6.014;2023-02-26T00:16:57;14.32;;;4.70;;
23117;SDS011;11728;50.624;6.014;2023-02-26T00:22:16;12.27;;;5.45;;
23117;SDS011;11728;50.624;6.014;2023-02-26T00:27:17;13.35;;;4.93;;
23117;SDS011;11728;50.624;6.014;2023-02-26T00:32:18;10.35;;;3.95;;
23117;SDS011;11728;50.624;6.014;2023-02-26T00:37:25;12.75;;;4.32;;
23117;SDS011;11728;50.624;6.014;2023-02-26T00:42:27;9.93;;;3.97;;
23117;SDS011;11728;50.624;6.014;2023-02-26T00:57:46;10.32;;;3.55;;
23117;SDS011;11728;50.624;6.014;2023-02-26T01:02:46;10.90;;;4.00;;
23117;SDS011;11728;50.624;6.014;2023-02-26T01:13:01;12.98;;;3.35;;
23117;SDS011;11728;50.624;6.014;2023-02-26T01:23:23;10.38;;;3.33;;
23117;SDS011;11728;50.624;6.014;2023-02-26T01:28:25;11.55;;;3.20;;
23117;SDS011;11728;50.624;6.014;2023-02-26T01:33:31;14.02;;;3.95;;
23117;SDS011;11728;50.624;6.014;2023-02-26T01:38:56;12.75;;;3.63;;
23117;SDS011;11728;50.624;6.014;2023-02-26T01:44:10;7.35;;;3.15;;
23117;SDS011;11728;50.624;6.014;2023-02-26T01:49:17;8.80;;;3.67;;
23117;SDS011;11728;50.624;6.014;2023-02-26T01:54:20;13.05;;;3.58;;
23117;SDS011;11728;50.624;6.014;2023-02-26T01:59:22;11.52;;;4.00;;
23117;SDS011;11728;50.624;6.014;2023-02-26T02:04:25;11.25;;;3.80;;
23117;SDS011;11728;50.624;6.014;2023-02-26T02:09:26;8.30;;;3.50;;
23117;SDS011;11728;50.624;6.014;2023-02-26T02:36:02;9.23;;;2.95;;
23117;SDS011;11728;50.624;6.014;2023-02-26T02:46:37;12.35;;;3.60;;
23117;SDS011;11728;50.624;6.014;2023-02-26T02:51:45;9.20;;;2.97;;
23117;SDS011;11728;50.624;6.014;2023-02-26T02:56:52;11.70;;;2.95;;
23117;SDS011;11728;50.624;6.014;2023-02-26T03:02:44;11.07;;;3.15;;
23117;SDS011;11728;50.624;6.014;2023-02-26T03:07:31;10.95;;;2.80;;
23117;SDS011;11728;50.624;6.014;2023-02-26T03:12:35;11.55;;;2.95;;
23117;SDS011;11728;50.624;6.014;2023-02-26T03:17:38;8.55;;;2.67;;
23117;SDS011;11728;50.624;6.014;2023-02-26T03:23:09;7.78;;;2.47;;
23117;SDS011;11728;50.624;6.014;2023-02-26T03:28:20;16.85;;;2.88;;
23117;SDS011;11728;50.624;6.014;2023-02-26T03:33:27;7.47;;;2.72;;
23117;SDS011;11728;50.624;6.014;2023-02-26T03:39:16;9.98;;;2.50;;
23117;SDS011;11728;50.624;6.014;2023-02-26T03:44:12;6.07;;;2.65;;
23117;SDS011;11728;50.624;6.014;2023-02-26T03:49:25;7.07;;;2.20;;
23117;SDS011;11728;50.624;6.014;2023-02-26T03:54:32;9.55;;;2.53;;
23117;SDS011;11728;50.624;6.014;2023-02-26T03:59:36;7.65;;;2.50;;
23117;SDS011;11728;50.624;6.014;2023-02-26T04:10:09;9.02;;;2.30;;
23117;SDS011;11728;50.624;6.014;2023-02-26T04:15:13;8.75;;;2.25;;
23117;SDS011;11728;50.624;6.014;2023-02-26T04:20:14;12.63;;;3.42;;
23117;SDS011;11728;50.624;6.014;2023-02-26T04:25:14;5.80;;;2.70;;
23117;SDS011;11728;50.624;6.014;2023-02-26T04:30:15;7.40;;;2.72;;
23117;SDS011;11728;50.624;6.014;2023-02-26T04:35:16;8.30;;;2.90;;
23117;SDS011;11728;50.624;6.014;2023-02-26T04:40:16;8.32;;;2.63;;
23117;SDS011;11728;50.624;6.014;2023-02-26T04:45:16;11.18;;;3.20;;
23117;SDS011;11728;50.624;6.014;2023-02-26T04:50:17;8.02;;;2.50;;
23117;SDS011;11728;50.624;6.014;2023-02-26T04:55:17;8.38;;;2.45;;
23117;SDS011;11728;50.624;6.014;2023-02-26T05:00:18;7.45;;;2.40;;
23117;SDS011;11728;50.624;6.014;2023-02-26T05:05:19;8.48;;;2.85;;
23117;SDS011;11728;50.624;6.014;2023-02-26T05:10:19;6.45;;;2.55;;
23117;SDS011;11728;50.624;6.014;2023-02-26T05:15:19;9.75;;;2.97;;
23117;SDS011;11728;50.624;6.014;2023-02-26T05:20:20;9.43;;;2.90;;
23117;SDS011;11728;50.624;6.014;2023-02-26T05:25:21;7.80;;;2.70;;
23117;SDS011;11728;50.624;6.014;2023-02-26T05:30:21;6.03;;;3.00;;
23117;SDS011;11728;50.624;6.014;2023-02-26T05:35:22;9.60;;;2.97;;
23117;SDS011;11728;50.624;6.014;2023-02-26T05:40:23;6.72;;;2.58;;
23117;SDS011;11728;50.624;6.014;2023-02-26T05:45:23;9.02;;;2.80;;
23117;SDS011;11728;50.624;6.014;2023-02-26T05:50:23;6.82;;;2.63;;
23117;SDS011;11728;50.624;6.014;2023-02-26T05:55:24;7.63;;;2.85;;
23117;SDS011;11728;50.624;6.014;2023-02-26T06:00:24;6.47;;;2.25;;
23117;SDS011;11728;50.624;6.014;2023-02-26T06:05:25;15.48;;;4.90;;
23117;SDS011;11728;50.624;6.014;2023-02-26T06:10:25;9.00;;;3.00;;
23117;SDS011;11728;50.624;6.014;2023-02-26T06:15:25;10.87;;;2.77;;
23117;SDS011;11728;50.624;6.014;2023-02-26T06:20:26;7.32;;;2.65;;
23117;SDS011;11728;50.624;6.014;2023-02-26T06:25:26;10.55;;;2.60;;
23117;SDS011;11728;50.624;6.014;2023-02-26T06:30:27;10.15;;;2.90;;
23117;SDS011;11728;50.624;6.014;2023-02-26T06:35:27;7.20;;;2.63;;
23117;SDS011;11728;50.624;6.014;2023-02-26T06:40:29;9.90;;;2.63;;
23117;SDS011;11728;50.624;6.014;2023-02-26T06:45:29;6.60;;;3.00;;
23117;SDS011;11728;50.624;6.014;2023-02-26T06:50:30;10.65;;;2.92;;
23117;SDS011;11728;50.624;6.014;2023-02-26T06:55:31;7.53;;;2.95;;
23117;SDS011;11728;50.624;6.014;2023-02-26T07:00:32;8.68;;;3.28;;
23117;SDS011;11728;50.624;6.014;2023-02-26T07:05:32;10.00;;;3.47;;
23117;SDS011;11728;50.624;6.014;2023-02-26T07:10:33;5.68;;;2.78;;
23117;SDS011;11728;50.624;6.014;2023-02-26T07:15:34;10.10;;;3.15;;
23117;SDS011;11728;50.624;6.014;2023-02-26T07:20:35;9.13;;;3.00;;
23117;SDS011;11728;50.624;6.014;2023-02-26T07:25:35;7.85;;;3.38;;
23117;SDS011;11728;50.624;6.014;2023-02-26T07:30:36;5.50;;;2.80;;
23117;SDS011;11728;50.624;6.014;2023-02-26T07:35:37;13.48;;;3.20;;
23117;SDS011;11728;50.624;6.014;2023-02-26T07:40:37;9.05;;;3.47;;
23117;SDS011;11728;50.624;6.014;2023-02-26T07:45:37;11.07;;;2.95;;
23117;SDS011;11728;50.624;6.014;2023-02-26T07:50:38;9.05;;;3.72;;
23117;SDS011;11728;50.624;6.014;2023-02-26T07:55:38;7.73;;;3.47;;
23117;SDS011;11728;50.624;6.014;2023-02-26T08:00:39;8.63;;;3.78;;
23117;SDS011;11728;50.624;6.014;2023-02-26T08:05:39;11.25;;;3.00;;
23117;SDS011;11728;50.624;6.014;2023-02-26T08:10:39;9.80;;;4.13;;
23117;SDS011;11728;50.624;6.014;2023-02-26T08:15:40;9.43;;;3.30;;
23117;SDS011;11728;50.624;6.014;2023-02-26T08:20:42;8.40;;;4.20;;
23117;SDS011;11728;50.624;6.014;2023-02-26T08:25:43;8.82;;;3.33;;
23117;SDS011;11728;50.624;6.014;2023-02-26T08:30:44;16.48;;;5.22;;
23117;SDS011;11728;50.624;6.014;2023-02-26T08:35:45;10.30;;;5.22;;
23117;SDS011;11728;50.624;6.014;2023-02-26T08:40:49;7.10;;;3.88;;
23117;SDS011;11728;50.624;6.014;2023-02-26T08:45:51;9.60;;;3.53;;
23117;SDS011;11728;50.624;6.014;2023-02-26T08:50:52;14.18;;;3.53;;
23117;SDS011;11728;50.624;6.014;2023-02-26T08:55:53;11.18;;;3.00;;
23117;SDS011;11728;50.624;6.014;2023-02-26T09:00:53;6.88;;;2.75;;
23117;SDS011;11728;50.624;6.014;2023-02-26T09:05:54;7.72;;;2.17;;
23117;SDS011;11728;50.624;6.014;2023-02-26T09:10:54;6.95;;;2.70;;
23117;SDS011;11728;50.624;6.014;2023-02-26T09:15:59;6.35;;;2.53;;
23117;SDS011;11728;50.624;6.014;2023-02-26T09:21:00;5.50;;;2.80;;
23117;SDS011;11728;50.624;6.014;2023-02-26T09:26:00;8.48;;;2.75;;
23117;SDS011;11728;50.624;6.014;2023-02-26T09:31:01;7.65;;;2.80;;
23117;SDS011;11728;50.624;6.014;2023-02-26T09:36:01;9.55;;;2.63;;
23117;SDS011;11728;50.624;6.014;2023-02-26T09:46:17;6.03;;;2.25;;
23117;SDS011;11728;50.624;6.014;2023-02-26T09:51:21;6.63;;;1.83;;
23117;SDS011;11728;50.624;6.014;2023-02-26T09:56:23;10.10;;;3.10;;
23117;SDS011;11728;50.624;6.014;2023-02-26T10:11:45;9.60;;;2.10;;
23117;SDS011;11728;50.624;6.014;2023-02-26T10:16:47;4.88;;;1.27;;
23117;SDS011;11728;50.624;6.014;2023-02-26T10:21:52;5.68;;;1.88;;
23117;SDS011;11728;50.624;6.014;2023-02-26T10:27:10;6.88;;;1.60;;
23117;SDS011;11728;50.624;6.014;2023-02-26T10:32:36;3.70;;;1.60;;
23117;SDS011;11728;50.624;6.014;2023-02-26T10:37:58;4.10;;;1.20;;
23117;SDS011;11728;50.624;6.014;2023-02-26T10:59:09;4.45;;;1.30;;
23117;SDS011;11728;50.624;6.014;2023-02-26T11:04:18;2.95;;;1.55;;
23117;SDS011;11728;50.624;6.014;2023-02-26T11:09:24;2.75;;;1.40;;
23117;SDS011;11728;50.624;6.014;2023-02-26T11:14:24;3.25;;;1.48;;
23117;SDS011;11728;50.624;6.014;2023-02-26T11:19:29;3.13;;;1.40;;
23117;SDS011;11728;50.624;6.014;2023-02-26T11:29:37;3.67;;;1.60;;
23117;SDS011;11728;50.624;6.014;2023-02-26T11:34:43;2.58;;;0.90;;
23117;SDS011;11728;50.624;6.014;2023-02-26T11:39:45;3.13;;;1.20;;
23117;SDS011;11728;50.624;6.014;2023-02-26T11:44:47;3.40;;;1.33;;
23117;SDS011;11728;50.624;6.014;2023-02-26T11:49:50;2.70;;;1.17;;
23117;SDS011;11728;50.624;6.014;2023-02-26T11:54:54;2.85;;;0.80;;
23117;SDS011;11728;50.624;6.014;2023-02-26T11:59:59;3.25;;;0.90;;
23117;SDS011;11728;50.624;6.014;2023-02-26T12:05:16;3.95;;;1.02;;
23117;SDS011;11728;50.624;6.014;2023-02-26T12:10:21;3.25;;;1.00;;
23117;SDS011;11728;50.624;6.014;2023-02-26T12:31:31;2.25;;;1.10;;
23117;SDS011;11728;50.624;6.014;2023-02-26T13:19:34;4.63;;;1.60;;
23117;SDS011;11728;50.624;6.014;2023-02-26T13:24:44;2.72;;;1.13;;
23117;SDS011;11728;50.624;6.014;2023-02-26T13:30:00;3.20;;;1.40;;
23117;SDS011;11728;50.624;6.014;2023-02-26T13:35:12;2.95;;;1.08;;
23117;SDS011;11728;50.624;6.014;2023-02-26T13:41:15;3.65;;;1.35;;
23117;SDS011;11728;50.624;6.014;2023-02-26T13:51:26;2.60;;;0.93;;
23117;SDS011;11728;50.624;6.014;2023-02-26T14:01:32;3.92;;;1.00;;
23117;SDS011;11728;50.624;6.014;2023-02-26T14:06:41;2.83;;;0.90;;
23117;SDS011;11728;50.624;6.014;2023-02-26T14:16:48;2.83;;;1.00;;
23117;SDS011;11728;50.624;6.014;2023-02-26T14:37:11;3.43;;;1.00;;
23117;SDS011;11728;50.624;6.014;2023-02-26T14:42:20;4.28;;;1.80;;
23117;SDS011;11728;50.624;6.014;2023-02-26T14:47:27;4.10;;;1.27;;
23117;SDS011;11728;50.624;6.014;2023-02-26T14:52:45;4.80;;;1.00;;
23117;SDS011;11728;50.624;6.014;2023-02-26T14:58:06;5.15;;;1.40;;
23117;SDS011;11728;50.624;6.014;2023-02-26T15:08:58;2.75;;;1.10;;
23117;SDS011;11728;50.624;6.014;2023-02-26T15:29:55;6.27;;;1.37;;
23117;SDS011;11728;50.624;6.014;2023-02-26T15:35:02;5.15;;;1.15;;
23117;SDS011;11728;50.624;6.014;2023-02-26T15:40:14;3.78;;;1.00;;
23117;SDS011;11728;50.624;6.014;2023-02-26T15:45:18;5.38;;;1.05;;
23117;SDS011;11728;50.624;6.014;2023-02-26T15:50:19;4.78;;;1.20;;
23117;SDS011;11728;50.624;6.014;2023-02-26T15:55:24;3.65;;;1.30;;
23117;SDS011;11728;50.624;6.014;2023-02-26T16:00:25;4.68;;;1.52;;
23117;SDS011;11728;50.624;6.014;2023-02-26T16:05:26;5.80;;;1.90;;
23117;SDS011;11728;50.624;6.014;2023-02-26T16:10:34;6.38;;;1.33;;
23117;SDS011;11728;50.624;6.014;2023-02-26T16:15:38;4.20;;;0.95;;
23117;SDS011;11728;50.624;6.014;2023-02-26T16:20:46;2.20;;;0.95;;
23117;SDS011;11728;50.624;6.014;2023-02-26T16:25:50;3.13;;;0.85;;
23117;SDS011;11728;50.624;6.014;2023-02-26T16:30:52;2.67;;;0.90;;
23117;SDS011;11728;50.624;6.014;2023-02-26T16:36:09;2.28;;;0.85;;
23117;SDS011;11728;50.624;6.014;2023-02-26T16:41:13;4.97;;;1.65;;
23117;SDS011;11728;50.624;6.014;2023-02-26T16:46:27;4.60;;;1.80;;
23117;SDS011;11728;50.624;6.014;2023-02-26T16:51:34;10.07;;;3.95;;
23117;SDS011;11728;50.624;6.014;2023-02-26T16:56:41;5.75;;;2.78;;
23117;SDS011;11728;50.624;6.014;2023-02-26T17:01:52;4.55;;;2.38;;
23117;SDS011;11728;50.624;6.014;2023-02-26T17:07:08;5.03;;;2.20;;
23117;SDS011;11728;50.624;6.014;2023-02-26T17:12:22;5.07;;;2.40;;
23117;SDS011;11728;50.624;6.014;2023-02-26T17:17:27;7.13;;;2.22;;
23117;SDS011;11728;50.624;6.014;2023-02-26T17:22:28;9.32;;;3.85;;
23117;SDS011;11728;50.624;6.014;2023-02-26T17:27:32;5.45;;;2.90;;
23117;SDS011;11728;50.624;6.014;2023-02-26T17:32:34;14.18;;;5.05;;
23117;SDS011;11728;50.624;6.014;2023-02-26T17:37:35;11.80;;;4.85;;
23117;SDS011;11728;50.624;6.014;2023-02-26T17:42:36;27.40;;;11.57;;
23117;SDS011;11728;50.624;6.014;2023-02-26T17:47:36;10.88;;;4.18;;
23117;SDS011;11728;50.624;6.014;2023-02-26T17:52:37;7.40;;;3.25;;
23117;SDS011;11728;50.624;6.014;2023-02-26T17:57:37;7.43;;;3.53;;
23117;SDS011;11728;50.624;6.014;2023-02-26T18:02:37;7.47;;;3.38;;
23117;SDS011;11728;50.624;6.014;2023-02-26T18:07:38;7.10;;;3.60;;
23117;SDS011;11728;50.624;6.014;2023-02-26T18:12:39;8.00;;;3.40;;
23117;SDS011;11728;50.624;6.014;2023-02-26T18:17:40;7.00;;;3.70;;
23117;SDS011;11728;50.624;6.014;2023-02-26T18:22:40;11.77;;;4.57;;
23117;SDS011;11728;50.624;6.014;2023-02-26T18:27:41;9.18;;;4.35;;
23117;SDS011;11728;50.624;6.014;2023-02-26T18:32:42;9.23;;;5.43;;
23117;SDS011;11728;50.624;6.014;2023-02-26T18:37:43;12.77;;;6.10;;
23117;SDS011;11728;50.624;6.014;2023-02-26T18:42:44;14.35;;;7.70;;
23117;SDS011;11728;50.624;6.014;2023-02-26T18:47:45;13.27;;;6.88;;
23117;SDS011;11728;50.624;6.014;2023-02-26T18:52:46;14.85;;;7.50;;
23117;SDS011;11728;50.624;6.014;2023-02-26T18:57:47;10.43;;;5.22;;
23117;SDS011;11728;50.624;6.014;2023-02-26T19:02:47;16.20;;;7.33;;
23117;SDS011;11728;50.624;6.014;2023-02-26T19:07:48;20.40;;;8.43;;
23117;SDS011;11728;50.624;6.014;2023-02-26T19:12:49;38.83;;;15.00;;
23117;SDS011;11728;50.624;6.014;2023-02-26T19:17:50;46.08;;;16.27;;
23117;SDS011;11728;50.624;6.014;2023-02-26T19:22:50;31.95;;;13.00;;
23117;SDS011;11728;50.624;6.014;2023-02-26T19:27:51;8.00;;;4.47;;
23117;SDS011;11728;50.624;6.014;2023-02-26T19:32:54;8.70;;;4.43;;
23117;SDS011;11728;50.624;6.014;2023-02-26T19:37:55;20.95;;;9.13;;
23117;SDS011;11728;50.624;6.014;2023-02-26T19:42:55;13.13;;;6.85;;
23117;SDS011;11728;50.624;6.014;2023-02-26T19:47:56;14.32;;;6.38;;
23117;SDS011;11728;50.624;6.014;2023-02-26T19:52:56;14.18;;;3.72;;
23117;SDS011;11728;50.624;6.014;2023-02-26T19:57:57;18.65;;;7.80;;
23117;SDS011;11728;50.624;6.014;2023-02-26T20:02:57;12.18;;;5.00;;
23117;SDS011;11728;50.624;6.014;2023-02-26T20:07:58;12.48;;;6.65;;
23117;SDS011;11728;50.624;6.014;2023-02-26T20:12:58;10.07;;;5.40;;
23117;SDS011;11728;50.624;6.014;2023-02-26T20:17:59;9.93;;;5.47;;
23117;SDS011;11728;50.624;6.014;2023-02-26T20:22:59;11.23;;;5.95;;
23117;SDS011;11728;50.624;6.014;2023-02-26T20:28:00;9.45;;;5.18;;
23117;SDS011;11728;50.624;6.014;2023-02-26T20:33:01;8.98;;;5.00;;
23117;SDS011;11728;50.624;6.014;2023-02-26T20:38:01;9.32;;;4.65;;
23117;SDS011;11728;50.624;6.014;2023-02-26T20:43:02;6.18;;;4.18;;
23117;SDS011;11728;50.624;6.014;2023-02-26T20:48:03;12.25;;;4.85;;
23117;SDS011;11728;50.624;6.014;2023-02-26T20:53:05;7.13;;;4.00;;
23117;SDS011;11728;50.624;6.014;2023-02-26T20:58:06;8.10;;;4.63;;
23117;SDS011;11728;50.624;6.014;2023-02-26T21:03:07;13.32;;;3.33;;
23117;SDS011;11728;50.624;6.014;2023-02-26T21:08:07;9.27;;;3.90;;
23117;SDS011;11728;50.624;6.014;2023-02-26T21:13:09;7.28;;;3.60;;
23117;SDS011;11728;50.624;6.014;2023-02-26T21:18:10;6.32;;;3.40;;
23117;SDS011;11728;50.624;6.014;2023-02-26T21:23:10;4.57;;;2.83;;
23117;SDS011;11728;50.624;6.014;2023-02-26T21:28:10;6.95;;;3.22;;
23117;SDS011;11728;50.624;6.014;2023-02-26T21:33:11;6.55;;;3.25;;
23117;SDS011;11728;50.624;6.014;2023-02-26T21:38:12;6.32;;;3.35;;
23117;SDS011;11728;50.624;6.014;2023-02-26T21:43:13;6.95;;;3.53;;
23117;SDS011;11728;50.624;6.014;2023-02-26T21:48:13;8.20;;;3.53;;
23117;SDS011;11728;50.624;6.014;2023-02-26T21:53:14;7.57;;;4.00;;
23117;SDS011;11728;50.624;6.014;2023-02-26T21:58:14;6.47;;;4.03;;
23117;SDS011;11728;50.624;6.014;2023-02-26T22:03:15;13.13;;;6.72;;
23117;SDS011;11728;50.624;6.014;2023-02-26T22:08:15;8.50;;;4.57;;
23117;SDS011;11728;50.624;6.014;2023-02-26T22:13:16;6.13;;;3.92;;
23117;SDS011;11728;50.624;6.014;2023-02-26T22:18:16;9.13;;;3.55;;
23117;SDS011;11728;50.624;6.014;2023-02-26T22:23:17;6.15;;;3.42;;
23117;SDS011;11728;50.624;6.014;2023-02-26T22:28:17;6.93;;;3.50;;
23117;SDS011;11728;50.624;6.014;2023-02-26T22:33:17;5.28;;;2.97;;
23117;SDS011;11728;50.624;6.014;2023-02-26T22:38:18;8.90;;;4.13;;
23117;SDS011;11728;50.624;6.014;2023-02-26T22:43:18;6.70;;;3.88;;
23117;SDS011;11728;50.624;6.014;2023-02-26T22:48:19;8.35;;;3.90;;
23117;SDS011;11728;50.624;6.014;2023-02-26T22:53:20;11.50;;;5.55;;
23117;SDS011;11728;50.624;6.014;2023-02-26T22:58:20;10.35;;;5.10;;
23117;SDS011;11728;50.624;6.014;2023-02-26T23:03:20;9.80;;;5.10;;
23117;SDS011;11728;50.624;6.014;2023-02-26T23:08:21;12.30;;;4.78;;
23117;SDS011;11728;50.624;6.014;2023-02-26T23:13:21;9.15;;;4.28;;
23117;SDS011;11728;50.624;6.014;2023-02-26T23:18:22;7.13;;;3.85;;
23117;SDS011;11728;50.624;6.014;2023-02-26T23:23:23;8.00;;;4.10;;
23117;SDS011;11728;50.624;6.014;2023-02-26T23:28:23;8.23;;;3.97;;
23117;SDS011;11728;50.624;6.014;2023-02-26T23:33:23;11.10;;;4.57;;
23117;SDS011;11728;50.624;6.014;2023-02-26T23:38:25;7.38;;;3.78;;
23117;SDS011;11728;50.624;6.014;2023-02-26T23:43:25;9.43;;;5.10;;
23117;SDS011;11728;50.624;6.014;2023-02-26T23:48:25;7.35;;;4.53;;
23117;SDS011;11728;50.624;6.014;2023-02-26T23:53:26;5.88;;;3.42;;
23117;SDS011;11728;50.624;6.014;2023-02-26T23:58:27;10.30;;;3.40;;
